createdAt,value
2022-10-05T00:28:09.890Z,10
2022-10-05T00:56:58.107Z,10
2022-10-05T01:25:37.383Z,10
2022-10-05T01:54:31.696Z,10
2022-10-05T02:23:06.515Z,8
2022-10-05T03:10:30.174Z,8
2022-10-05T04:42:43.566Z,12
2022-10-05T05:11:31.085Z,14
2022-10-05T05:40:30.272Z,14
2022-10-05T06:09:06.190Z,14
2022-10-05T06:37:38.622Z,14
2022-10-05T07:06:34.029Z,15
2022-10-05T07:35:26.371Z,15
2022-10-05T08:03:53.698Z,14
2022-10-05T08:32:33.178Z,14
2022-10-05T09:01:08.456Z,12
2022-10-05T09:29:53.246Z,12
2022-10-05T09:58:25.363Z,12
2022-10-05T10:27:12.076Z,12
2022-10-05T10:55:48.841Z,11
2022-10-05T11:24:16.731Z,11
2022-10-05T11:52:48.465Z,9
2022-10-05T12:21:34.359Z,8
2022-10-05T12:50:14.874Z,7
2022-10-05T13:18:47.128Z,7
2022-10-05T13:47:02.091Z,6
2022-10-05T14:15:41.371Z,6
2022-10-05T14:44:03.839Z,4
2022-10-05T15:12:39.462Z,4
2022-10-05T15:41:23.234Z,4
2022-10-05T16:09:45.759Z,4
2022-10-05T16:38:25.632Z,4
2022-10-05T17:06:54.967Z,4
2022-10-05T17:35:47.695Z,4
2022-10-05T18:04:35.429Z,4
2022-10-05T18:33:13.158Z,4
2022-10-05T19:01:49.311Z,4
2022-10-05T19:30:26.119Z,4
2022-10-05T19:59:05.380Z,4
2022-10-05T20:27:40.233Z,6
2022-10-05T21:25:05.587Z,7
2022-10-05T21:53:56.916Z,6
2022-10-05T22:22:47.015Z,6
2022-10-05T22:51:41.662Z,5
2022-10-05T23:20:33.923Z,6
2022-10-05T23:49:27.031Z,4
